sensor_id;sensor_type;location;lat;lon;timestamp;pressure;altitude;pressure_sealevel;temperature;humidity
35489;BME280;21602;55.670;37.578;2023-05-01T00:00:12;98248.94;;;6.91;100.00
35489;BME280;21602;55.670;37.578;2023-05-01T00:02:42;98251.44;;;6.98;100.00
35489;BME280;21602;55.670;37.578;2023-05-01T00:05:08;98253.44;;;6.90;100.00
35489;BME280;21602;55.670;37.578;2023-05-01T00:07:35;98247.72;;;6.82;100.00
35489;BME280;21602;55.670;37.578;2023-05-01T00:10:01;98257.41;;;6.76;100.00
35489;BME280;21602;55.670;37.578;2023-05-01T00:12:27;98258.91;;;6.84;100.00
35489;BME280;21602;55.670;37.578;2023-05-01T00:14:53;98250.94;;;6.84;100.00
35489;BME280;21602;55.670;37.578;2023-05-01T00:17:18;98257.94;;;6.90;100.00
35489;BME280;21602;55.670;37.578;2023-05-01T00:19:44;98259.81;;;6.89;100.00
35489;BME280;21602;55.670;37.578;2023-05-01T00:22:10;98264.72;;;6.98;100.00
35489;BME280;21602;55.670;37.578;2023-05-01T00:24:36;98271.50;;;7.05;100.00
35489;BME280;21602;55.670;37.578;2023-05-01T00:27:02;98270.47;;;7.06;100.00
35489;BME280;21602;55.670;37.578;2023-05-01T00:29:28;98257.53;;;7.10;100.00
35489;BME280;21602;55.670;37.578;2023-05-01T00:31:54;98248.66;;;7.04;100.00
35489;BME280;21602;55.670;37.578;2023-05-01T00:34:20;98256.25;;;7.12;100.00
35489;BME280;21602;55.670;37.578;2023-05-01T00:36:46;98259.38;;;7.09;100.00
35489;BME280;21602;55.670;37.578;2023-05-01T00:39:11;98264.06;;;7.19;100.00
35489;BME280;21602;55.670;37.578;2023-05-01T00:41:37;98257.00;;;7.25;100.00
35489;BME280;21602;55.670;37.578;2023-05-01T00:44:03;98250.25;;;7.34;100.00
35489;BME280;21602;55.670;37.578;2023-05-01T00:46:30;98244.38;;;7.32;100.00
35489;BME280;21602;55.670;37.578;2023-05-01T00:48:56;98236.72;;;7.35;100.00
35489;BME280;21602;55.670;37.578;2023-05-01T00:51:23;98233.28;;;7.35;100.00
35489;BME280;21602;55.670;37.578;2023-05-01T00:53:49;98234.41;;;7.39;100.00
35489;BME280;21602;55.670;37.578;2023-05-01T00:56:16;98233.44;;;7.45;100.00
35489;BME280;21602;55.670;37.578;2023-05-01T00:58:44;98230.31;;;7.48;100.00
35489;BME280;21602;55.670;37.578;2023-05-01T01:01:11;98248.44;;;7.51;100.00
35489;BME280;21602;55.670;37.578;2023-05-01T01:03:37;98261.75;;;7.39;100.00
35489;BME280;21602;55.670;37.578;2023-05-01T01:06:12;98273.09;;;7.35;100.00
35489;BME280;21602;55.670;37.578;2023-05-01T01:08:43;98282.06;;;7.46;100.00
35489;BME280;21602;55.670;37.578;2023-05-01T01:11:21;98284.66;;;7.57;100.00
35489;BME280;21602;55.670;37.578;2023-05-01T01:14:05;98285.78;;;7.61;99.68
35489;BME280;21602;55.670;37.578;2023-05-01T01:16:42;98271.06;;;7.70;99.66
35489;BME280;21602;55.670;37.578;2023-05-01T01:21:50;98232.41;;;7.80;98.29
35489;BME280;21602;55.670;37.578;2023-05-01T01:24:44;98221.72;;;7.75;97.70
35489;BME280;21602;55.670;37.578;2023-05-01T01:33:08;98208.34;;;7.36;98.67
35489;BME280;21602;55.670;37.578;2023-05-01T01:35:45;98194.97;;;7.31;98.59
35489;BME280;21602;55.670;37.578;2023-05-01T01:38:21;98197.63;;;7.31;98.98
35489;BME280;21602;55.670;37.578;2023-05-01T01:41:23;98207.06;;;7.38;99.92
35489;BME280;21602;55.670;37.578;2023-05-01T01:44:08;98217.44;;;7.40;99.78
35489;BME280;21602;55.670;37.578;2023-05-01T01:46:38;98213.97;;;7.39;100.00
35489;BME280;21602;55.670;37.578;2023-05-01T01:49:07;98200.06;;;7.32;100.00
35489;BME280;21602;55.670;37.578;2023-05-01T01:51:34;98200.63;;;7.34;100.00
35489;BME280;21602;55.670;37.578;2023-05-01T01:54:03;98198.22;;;7.33;100.00
35489;BME280;21602;55.670;37.578;2023-05-01T01:56:30;98197.88;;;7.29;100.00
35489;BME280;21602;55.670;37.578;2023-05-01T01:59:00;98204.94;;;7.24;100.00
35489;BME280;21602;55.670;37.578;2023-05-01T02:01:27;98209.13;;;7.19;100.00
35489;BME280;21602;55.670;37.578;2023-05-01T02:03:54;98214.78;;;7.23;100.00
35489;BME280;21602;55.670;37.578;2023-05-01T02:06:20;98209.53;;;7.28;100.00
35489;BME280;21602;55.670;37.578;2023-05-01T02:08:48;98200.88;;;7.33;100.00
35489;BME280;21602;55.670;37.578;2023-05-01T02:11:19;98192.09;;;7.32;100.00
35489;BME280;21602;55.670;37.578;2023-05-01T02:13:48;98190.50;;;7.31;100.00
35489;BME280;21602;55.670;37.578;2023-05-01T02:16:34;98182.66;;;7.25;100.00
35489;BME280;21602;55.670;37.578;2023-05-01T02:19:03;98202.22;;;7.18;100.00
35489;BME280;21602;55.670;37.578;2023-05-01T02:21:29;98213.63;;;7.19;100.00
35489;BME280;21602;55.670;37.578;2023-05-01T02:23:59;98218.94;;;7.19;100.00
35489;BME280;21602;55.670;37.578;2023-05-01T02:26:27;98208.66;;;7.23;100.00
35489;BME280;21602;55.670;37.578;2023-05-01T02:28:54;98224.16;;;7.31;100.00
35489;BME280;21602;55.670;37.578;2023-05-01T02:31:20;98228.53;;;7.37;100.00
35489;BME280;21602;55.670;37.578;2023-05-01T02:33:48;98239.38;;;7.35;100.00
35489;BME280;21602;55.670;37.578;2023-05-01T02:36:14;98262.47;;;7.35;100.00
35489;BME280;21602;55.670;37.578;2023-05-01T02:38:40;98270.31;;;7.41;100.00
35489;BME280;21602;55.670;37.578;2023-05-01T02:41:06;98269.19;;;7.54;100.00
35489;BME280;21602;55.670;37.578;2023-05-01T02:43:35;98276.50;;;7.64;100.00
35489;BME280;21602;55.670;37.578;2023-05-01T02:46:03;98281.09;;;7.68;100.00
35489;BME280;21602;55.670;37.578;2023-05-01T02:48:32;98286.03;;;7.77;100.00
35489;BME280;21602;55.670;37.578;2023-05-01T02:50:59;98288.28;;;7.85;99.49
35489;BME280;21602;55.670;37.578;2023-05-01T02:53:26;98283.59;;;7.92;99.31
35489;BME280;21602;55.670;37.578;2023-05-01T02:55:58;98287.41;;;7.96;98.84
35489;BME280;21602;55.670;37.578;2023-05-01T02:58:24;98275.50;;;7.99;98.80
35489;BME280;21602;55.670;37.578;2023-05-01T03:00:50;98268.78;;;7.96;98.17
35489;BME280;21602;55.670;37.578;2023-05-01T03:03:18;98257.28;;;7.90;97.33
35489;BME280;21602;55.670;37.578;2023-05-01T03:05:44;98245.19;;;7.83;97.81
35489;BME280;21602;55.670;37.578;2023-05-01T03:08:09;98233.38;;;7.74;97.91
35489;BME280;21602;55.670;37.578;2023-05-01T03:10:38;98244.00;;;7.74;98.14
35489;BME280;21602;55.670;37.578;2023-05-01T03:13:05;98236.03;;;7.74;98.30
35489;BME280;21602;55.670;37.578;2023-05-01T03:15:31;98224.84;;;7.72;97.98
35489;BME280;21602;55.670;37.578;2023-05-01T03:17:57;98236.59;;;7.76;98.22
35489;BME280;21602;55.670;37.578;2023-05-01T03:20:26;98238.53;;;7.80;98.63
35489;BME280;21602;55.670;37.578;2023-05-01T03:22:52;98248.44;;;7.85;98.04
35489;BME280;21602;55.670;37.578;2023-05-01T03:25:17;98262.94;;;7.94;98.24
35489;BME280;21602;55.670;37.578;2023-05-01T03:27:43;98279.50;;;8.01;97.89
35489;BME280;21602;55.670;37.578;2023-05-01T03:30:10;98274.84;;;8.08;97.68
35489;BME280;21602;55.670;37.578;2023-05-01T03:32:39;98266.69;;;8.15;97.13
35489;BME280;21602;55.670;37.578;2023-05-01T03:35:08;98274.56;;;8.27;97.42
35489;BME280;21602;55.670;37.578;2023-05-01T03:37:35;98260.63;;;8.36;96.86
35489;BME280;21602;55.670;37.578;2023-05-01T03:40:01;98268.38;;;8.38;96.25
35489;BME280;21602;55.670;37.578;2023-05-01T03:42:36;98267.88;;;8.41;96.64
35489;BME280;21602;55.670;37.578;2023-05-01T03:45:09;98275.94;;;8.46;96.33
35489;BME280;21602;55.670;37.578;2023-05-01T03:47:35;98280.44;;;8.45;95.82
35489;BME280;21602;55.670;37.578;2023-05-01T03:50:02;98277.59;;;8.52;95.85
35489;BME280;21602;55.670;37.578;2023-05-01T03:52:29;98282.50;;;8.60;95.98
35489;BME280;21602;55.670;37.578;2023-05-01T03:54:56;98284.81;;;8.74;96.11
35489;BME280;21602;55.670;37.578;2023-05-01T03:57:41;98290.78;;;8.86;95.21
35489;BME280;21602;55.670;37.578;2023-05-01T04:00:08;98267.31;;;8.83;94.26
35489;BME280;21602;55.670;37.578;2023-05-01T04:02:41;98263.31;;;8.80;94.35
35489;BME280;21602;55.670;37.578;2023-05-01T04:05:11;98262.47;;;8.75;94.23
35489;BME280;21602;55.670;37.578;2023-05-01T04:07:40;98268.63;;;8.80;94.52
35489;BME280;21602;55.670;37.578;2023-05-01T04:10:06;98272.41;;;8.84;94.35
35489;BME280;21602;55.670;37.578;2023-05-01T04:12:34;98272.72;;;8.88;94.51
35489;BME280;21602;55.670;37.578;2023-05-01T04:15:01;98276.47;;;8.92;94.21
35489;BME280;21602;55.670;37.578;2023-05-01T04:17:31;98269.38;;;8.97;94.16
35489;BME280;21602;55.670;37.578;2023-05-01T04:19:57;98282.19;;;9.01;93.68
35489;BME280;21602;55.670;37.578;2023-05-01T04:22:24;98278.16;;;8.98;93.56
35489;BME280;21602;55.670;37.578;2023-05-01T04:24:50;98290.38;;;8.94;93.06
35489;BME280;21602;55.670;37.578;2023-05-01T04:27:17;98284.28;;;8.98;93.67
35489;BME280;21602;55.670;37.578;2023-05-01T04:29:44;98292.34;;;9.04;93.37
35489;BME280;21602;55.670;37.578;2023-05-01T04:32:11;98290.22;;;9.06;93.11
35489;BME280;21602;55.670;37.578;2023-05-01T04:34:37;98289.41;;;9.05;92.75
35489;BME280;21602;55.670;37.578;2023-05-01T04:37:03;98295.00;;;9.04;93.01
35489;BME280;21602;55.670;37.578;2023-05-01T04:39:32;98287.50;;;9.01;92.89
35489;BME280;21602;55.670;37.578;2023-05-01T04:41:59;98288.75;;;8.93;93.07
35489;BME280;21602;55.670;37.578;2023-05-01T04:44:27;98303.34;;;8.90;93.34
35489;BME280;21602;55.670;37.578;2023-05-01T04:46:53;98311.88;;;8.92;93.22
35489;BME280;21602;55.670;37.578;2023-05-01T04:49:21;98298.66;;;8.97;93.46
35489;BME280;21602;55.670;37.578;2023-05-01T04:51:46;98305.00;;;8.96;93.29
35489;BME280;21602;55.670;37.578;2023-05-01T04:54:14;98309.00;;;8.94;92.97
35489;BME280;21602;55.670;37.578;2023-05-01T04:56:40;98309.78;;;8.94;92.87
35489;BME280;21602;55.670;37.578;2023-05-01T04:59:06;98311.72;;;8.99;93.05
35489;BME280;21602;55.670;37.578;2023-05-01T05:01:33;98315.44;;;8.98;92.82
35489;BME280;21602;55.670;37.578;2023-05-01T05:03:59;98306.06;;;8.95;92.82
35489;BME280;21602;55.670;37.578;2023-05-01T05:06:26;98302.63;;;8.95;92.83
35489;BME280;21602;55.670;37.578;2023-05-01T05:08:53;98312.50;;;9.00;93.07
35489;BME280;21602;55.670;37.578;2023-05-01T05:11:19;98310.13;;;8.98;92.73
35489;BME280;21602;55.670;37.578;2023-05-01T05:13:55;98305.53;;;8.93;92.30
35489;BME280;21602;55.670;37.578;2023-05-01T05:16:21;98305.75;;;8.92;92.75
35489;BME280;21602;55.670;37.578;2023-05-01T05:18:47;98304.66;;;8.88;92.59
35489;BME280;21602;55.670;37.578;2023-05-01T05:21:13;98313.88;;;8.80;93.05
35489;BME280;21602;55.670;37.578;2023-05-01T05:23:45;98311.16;;;8.75;93.02
35489;BME280;21602;55.670;37.578;2023-05-01T05:26:11;98312.50;;;8.78;93.39
35489;BME280;21602;55.670;37.578;2023-05-01T05:28:37;98308.13;;;8.88;93.35
35489;BME280;21602;55.670;37.578;2023-05-01T05:31:04;98312.50;;;9.00;92.76
35489;BME280;21602;55.670;37.578;2023-05-01T05:33:30;98309.44;;;9.08;92.56
35489;BME280;21602;55.670;37.578;2023-05-01T05:35:57;98303.34;;;9.12;92.37
35489;BME280;21602;55.670;37.578;2023-05-01T05:38:27;98291.75;;;9.23;92.48
35489;BME280;21602;55.670;37.578;2023-05-01T05:40:55;98303.31;;;9.34;91.93
35489;BME280;21602;55.670;37.578;2023-05-01T05:43:24;98307.13;;;9.43;91.21
35489;BME280;21602;55.670;37.578;2023-05-01T05:45:49;98313.31;;;9.49;90.92
35489;BME280;21602;55.670;37.578;2023-05-01T05:48:16;98315.44;;;9.47;90.41
35489;BME280;21602;55.670;37.578;2023-05-01T05:50:41;98320.31;;;9.55;90.87
35489;BME280;21602;55.670;37.578;2023-05-01T05:53:08;98326.50;;;9.61;90.47
35489;BME280;21602;55.670;37.578;2023-05-01T05:55:36;98332.19;;;9.69;90.44
35489;BME280;21602;55.670;37.578;2023-05-01T05:58:03;98338.03;;;9.71;90.04
35489;BME280;21602;55.670;37.578;2023-05-01T06:00:30;98333.22;;;9.68;89.21
35489;BME280;21602;55.670;37.578;2023-05-01T06:02:59;98328.94;;;9.67;89.42
35489;BME280;21602;55.670;37.578;2023-05-01T06:05:28;98339.59;;;9.67;89.16
35489;BME280;21602;55.670;37.578;2023-05-01T06:07:55;98332.63;;;9.61;88.88
35489;BME280;21602;55.670;37.578;2023-05-01T06:10:21;98335.81;;;9.63;89.21
35489;BME280;21602;55.670;37.578;2023-05-01T06:12:47;98342.84;;;9.69;89.05
35489;BME280;21602;55.670;37.578;2023-05-01T06:15:14;98351.31;;;9.66;87.57
35489;BME280;21602;55.670;37.578;2023-05-01T06:17:46;98353.84;;;9.51;87.42
35489;BME280;21602;55.670;37.578;2023-05-01T06:20:12;98356.69;;;9.44;87.38
35489;BME280;21602;55.670;37.578;2023-05-01T06:22:39;98356.88;;;9.38;87.76
35489;BME280;21602;55.670;37.578;2023-05-01T06:25:20;98353.97;;;9.39;87.76
35489;BME280;21602;55.670;37.578;2023-05-01T06:27:51;98354.22;;;9.38;87.20
35489;BME280;21602;55.670;37.578;2023-05-01T06:30:19;98354.28;;;9.43;86.82
35489;BME280;21602;55.670;37.578;2023-05-01T06:32:47;98351.97;;;9.52;87.24
35489;BME280;21602;55.670;37.578;2023-05-01T06:35:14;98355.22;;;9.59;86.66
35489;BME280;21602;55.670;37.578;2023-05-01T06:37:40;98373.97;;;9.64;85.28
35489;BME280;21602;55.670;37.578;2023-05-01T06:40:07;98359.09;;;9.73;85.40
35489;BME280;21602;55.670;37.578;2023-05-01T06:42:35;98364.88;;;9.92;85.71
35489;BME280;21602;55.670;37.578;2023-05-01T06:45:01;98366.69;;;10.13;84.52
35489;BME280;21602;55.670;37.578;2023-05-01T06:47:32;98375.38;;;10.31;84.38
35489;BME280;21602;55.670;37.578;2023-05-01T06:49:58;98372.22;;;10.39;83.56
35489;BME280;21602;55.670;37.578;2023-05-01T06:52:24;98376.47;;;10.35;82.12
35489;BME280;21602;55.670;37.578;2023-05-01T06:54:50;98385.38;;;10.45;82.64
35489;BME280;21602;55.670;37.578;2023-05-01T06:57:16;98383.28;;;10.52;82.10
35489;BME280;21602;55.670;37.578;2023-05-01T06:59:42;98393.53;;;10.71;82.47
35489;BME280;21602;55.670;37.578;2023-05-01T07:02:08;98397.53;;;10.68;81.83
35489;BME280;21602;55.670;37.578;2023-05-01T07:04:34;98411.84;;;10.57;81.61
35489;BME280;21602;55.670;37.578;2023-05-01T07:07:00;98409.06;;;10.42;81.62
35489;BME280;21602;55.670;37.578;2023-05-01T07:09:27;98413.56;;;10.36;81.74
35489;BME280;21602;55.670;37.578;2023-05-01T07:11:53;98408.81;;;10.43;82.29
35489;BME280;21602;55.670;37.578;2023-05-01T07:14:22;98410.28;;;10.61;81.99
35489;BME280;21602;55.670;37.578;2023-05-01T07:16:49;98417.88;;;10.80;81.78
35489;BME280;21602;55.670;37.578;2023-05-01T07:19:15;98415.91;;;11.07;81.41
35489;BME280;21602;55.670;37.578;2023-05-01T07:21:41;98414.91;;;11.23;80.51
35489;BME280;21602;55.670;37.578;2023-05-01T07:24:07;98411.41;;;11.13;79.65
35489;BME280;21602;55.670;37.578;2023-05-01T07:26:33;98419.13;;;11.09;79.68
35489;BME280;21602;55.670;37.578;2023-05-01T07:28:59;98419.38;;;11.08;79.42
35489;BME280;21602;55.670;37.578;2023-05-01T07:31:25;98430.91;;;11.13;79.63
35489;BME280;21602;55.670;37.578;2023-05-01T07:33:51;98425.38;;;11.30;79.39
35489;BME280;21602;55.670;37.578;2023-05-01T07:36:17;98435.84;;;11.47;78.28
35489;BME280;21602;55.670;37.578;2023-05-01T07:38:45;98438.06;;;11.60;76.71
35489;BME280;21602;55.670;37.578;2023-05-01T07:41:11;98446.06;;;11.60;75.76
35489;BME280;21602;55.670;37.578;2023-05-01T07:43:37;98436.47;;;11.64;75.41
35489;BME280;21602;55.670;37.578;2023-05-01T07:46:02;98443.97;;;11.72;75.05
35489;BME280;21602;55.670;37.578;2023-05-01T07:48:30;98448.78;;;11.70;74.29
35489;BME280;21602;55.670;37.578;2023-05-01T07:51:00;98442.34;;;11.66;73.58
35489;BME280;21602;55.670;37.578;2023-05-01T07:53:26;98453.06;;;11.76;73.67
35489;BME280;21602;55.670;37.578;2023-05-01T07:55:52;98446.19;;;11.91;73.61
35489;BME280;21602;55.670;37.578;2023-05-01T07:58:18;98451.03;;;12.14;73.48
35489;BME280;21602;55.670;37.578;2023-05-01T08:00:45;98452.94;;;12.34;72.34
35489;BME280;21602;55.670;37.578;2023-05-01T08:03:11;98452.16;;;12.49;71.26
35489;BME280;21602;55.670;37.578;2023-05-01T08:05:41;98457.50;;;12.69;70.60
35489;BME280;21602;55.670;37.578;2023-05-01T08:08:07;98466.34;;;12.65;68.05
35489;BME280;21602;55.670;37.578;2023-05-01T08:10:33;98462.06;;;12.59;68.85
35489;BME280;21602;55.670;37.578;2023-05-01T08:12:59;98468.19;;;12.39;69.16
35489;BME280;21602;55.670;37.578;2023-05-01T08:15:27;98471.94;;;12.27;68.96
35489;BME280;21602;55.670;37.578;2023-05-01T08:17:53;98467.13;;;12.24;69.03
35489;BME280;21602;55.670;37.578;2023-05-01T08:20:19;98470.34;;;12.32;69.43
35489;BME280;21602;55.670;37.578;2023-05-01T08:22:45;98480.53;;;12.35;68.54
35489;BME280;21602;55.670;37.578;2023-05-01T08:25:11;98482.66;;;12.33;68.76
35489;BME280;21602;55.670;37.578;2023-05-01T08:27:37;98482.38;;;12.24;68.44
35489;BME280;21602;55.670;37.578;2023-05-01T08:30:03;98478.59;;;12.15;67.88
35489;BME280;21602;55.670;37.578;2023-05-01T08:32:31;98491.91;;;11.89;68.22
35489;BME280;21602;55.670;37.578;2023-05-01T08:34:58;98502.56;;;11.79;69.25
35489;BME280;21602;55.670;37.578;2023-05-01T08:37:24;98508.88;;;11.63;69.13
35489;BME280;21602;55.670;37.578;2023-05-01T08:39:50;98507.50;;;11.45;69.42
35489;BME280;21602;55.670;37.578;2023-05-01T08:42:16;98502.41;;;11.48;69.85
35489;BME280;21602;55.670;37.578;2023-05-01T08:44:43;98516.06;;;11.52;69.76
35489;BME280;21602;55.670;37.578;2023-05-01T08:47:16;98514.47;;;11.51;69.61
35489;BME280;21602;55.670;37.578;2023-05-01T08:49:43;98524.69;;;11.64;69.79
35489;BME280;21602;55.670;37.578;2023-05-01T08:52:13;98526.28;;;11.60;68.46
35489;BME280;21602;55.670;37.578;2023-05-01T08:54:44;98524.38;;;11.56;67.55
35489;BME280;21602;55.670;37.578;2023-05-01T08:57:11;98528.91;;;11.55;68.18
35489;BME280;21602;55.670;37.578;2023-05-01T08:59:39;98524.72;;;11.69;67.88
35489;BME280;21602;55.670;37.578;2023-05-01T09:02:06;98533.41;;;11.92;68.05
35489;BME280;21602;55.670;37.578;2023-05-01T09:04:40;98535.63;;;12.20;67.28
35489;BME280;21602;55.670;37.578;2023-05-01T09:07:07;98547.47;;;12.45;66.71
35489;BME280;21602;55.670;37.578;2023-05-01T09:09:33;98542.69;;;12.72;66.38
35489;BME280;21602;55.670;37.578;2023-05-01T09:14:27;98553.34;;;12.52;63.83
35489;BME280;21602;55.670;37.578;2023-05-01T09:16:54;98547.38;;;12.24;64.83
35489;BME280;21602;55.670;37.578;2023-05-01T09:19:21;98560.75;;;12.19;65.10
35489;BME280;21602;55.670;37.578;2023-05-01T09:21:47;98561.31;;;12.21;65.00
35489;BME280;21602;55.670;37.578;2023-05-01T09:24:15;98560.53;;;12.26;64.15
35489;BME280;21602;55.670;37.578;2023-05-01T09:26:41;98560.78;;;12.29;63.68
35489;BME280;21602;55.670;37.578;2023-05-01T09:29:07;98552.50;;;12.26;63.39
35489;BME280;21602;55.670;37.578;2023-05-01T09:31:35;98576.84;;;12.29;63.59
35489;BME280;21602;55.670;37.578;2023-05-01T09:34:03;98569.88;;;12.23;62.78
35489;BME280;21602;55.670;37.578;2023-05-01T09:36:34;98574.13;;;12.14;62.78
35489;BME280;21602;55.670;37.578;2023-05-01T09:39:02;98561.59;;;12.25;63.02
35489;BME280;21602;55.670;37.578;2023-05-01T09:41:28;98572.03;;;12.26;62.75
35489;BME280;21602;55.670;37.578;2023-05-01T09:43:58;98574.13;;;12.14;62.95
35489;BME280;21602;55.670;37.578;2023-05-01T09:46:25;98569.28;;;12.06;63.36
35489;BME280;21602;55.670;37.578;2023-05-01T09:48:56;98567.13;;;11.98;63.06
35489;BME280;21602;55.670;37.578;2023-05-01T09:51:32;98575.97;;;12.03;63.21
35489;BME280;21602;55.670;37.578;2023-05-01T09:54:03;98576.19;;;11.92;63.18
35489;BME280;21602;55.670;37.578;2023-05-01T09:56:32;98574.41;;;11.65;63.39
35489;BME280;21602;55.670;37.578;2023-05-01T09:59:17;98569.91;;;11.76;63.21
35489;BME280;21602;55.670;37.578;2023-05-01T10:01:45;98578.75;;;11.76;63.54
35489;BME280;21602;55.670;37.578;2023-05-01T10:04:13;98579.81;;;11.75;63.51
35489;BME280;21602;55.670;37.578;2023-05-01T10:06:39;98585.63;;;11.67;63.75
35489;BME280;21602;55.670;37.578;2023-05-01T10:09:06;98590.44;;;11.60;63.94
35489;BME280;21602;55.670;37.578;2023-05-01T10:11:48;98595.47;;;11.57;64.31
35489;BME280;21602;55.670;37.578;2023-05-01T10:14:15;98600.03;;;11.56;64.69
35489;BME280;21602;55.670;37.578;2023-05-01T10:16:41;98598.41;;;11.55;64.87
35489;BME280;21602;55.670;37.578;2023-05-01T10:19:08;98611.16;;;11.43;65.36
35489;BME280;21602;55.670;37.578;2023-05-01T10:21:35;98609.34;;;11.11;66.21
35489;BME280;21602;55.670;37.578;2023-05-01T10:24:01;98618.66;;;10.82;67.69
35489;BME280;21602;55.670;37.578;2023-05-01T10:26:32;98614.28;;;10.70;68.49
35489;BME280;21602;55.670;37.578;2023-05-01T10:28:59;98608.22;;;10.53;70.40
35489;BME280;21602;55.670;37.578;2023-05-01T10:31:26;98631.25;;;10.15;71.76
35489;BME280;21602;55.670;37.578;2023-05-01T10:33:54;98629.09;;;10.12;72.07
35489;BME280;21602;55.670;37.578;2023-05-01T10:36:24;98643.50;;;10.11;73.03
35489;BME280;21602;55.670;37.578;2023-05-01T10:38:51;98654.16;;;10.11;72.27
35489;BME280;21602;55.670;37.578;2023-05-01T10:44:22;98657.34;;;9.91;73.34
35489;BME280;21602;55.670;37.578;2023-05-01T10:46:48;98673.19;;;9.81;73.77
35489;BME280;21602;55.670;37.578;2023-05-01T10:49:14;98683.63;;;9.49;74.87
35489;BME280;21602;55.670;37.578;2023-05-01T10:54:29;98677.91;;;9.40;74.65
35489;BME280;21602;55.670;37.578;2023-05-01T10:56:57;98695.09;;;9.33;75.68
35489;BME280;21602;55.670;37.578;2023-05-01T10:59:24;98691.53;;;9.27;75.50
35489;BME280;21602;55.670;37.578;2023-05-01T11:01:51;98701.09;;;9.11;76.06
35489;BME280;21602;55.670;37.578;2023-05-01T11:12:05;98726.59;;;8.50;78.69
35489;BME280;21602;55.670;37.578;2023-05-01T11:20:09;98737.56;;;8.30;79.93
35489;BME280;21602;55.670;37.578;2023-05-01T11:22:37;98739.19;;;8.19;80.46
35489;BME280;21602;55.670;37.578;2023-05-01T11:25:17;98748.09;;;8.25;80.95
35489;BME280;21602;55.670;37.578;2023-05-01T11:27:47;98751.56;;;8.26;80.96
35489;BME280;21602;55.670;37.578;2023-05-01T11:30:17;98766.38;;;8.10;81.70
35489;BME280;21602;55.670;37.578;2023-05-01T11:32:44;98750.78;;;7.90;82.38
35489;BME280;21602;55.670;37.578;2023-05-01T11:35:24;98768.41;;;7.73;82.89
35489;BME280;21602;55.670;37.578;2023-05-01T11:37:54;98763.78;;;7.56;83.28
35489;BME280;21602;55.670;37.578;2023-05-01T11:40:31;98767.13;;;7.63;83.45
35489;BME280;21602;55.670;37.578;2023-05-01T11:43:01;98784.97;;;7.75;83.39
35489;BME280;21602;55.670;37.578;2023-05-01T11:45:28;98796.09;;;7.53;82.36
35489;BME280;21602;55.670;37.578;2023-05-01T11:47:54;98795.16;;;7.48;82.93
35489;BME280;21602;55.670;37.578;2023-05-01T11:50:21;98794.19;;;7.30;83.50
35489;BME280;21602;55.670;37.578;2023-05-01T11:52:48;98799.16;;;7.27;84.23
35489;BME280;21602;55.670;37.578;2023-05-01T11:55:17;98800.53;;;7.29;84.15
35489;BME280;21602;55.670;37.578;2023-05-01T11:57:49;98805.91;;;7.41;84.50
35489;BME280;21602;55.670;37.578;2023-05-01T12:00:37;98804.94;;;7.35;83.90
35489;BME280;21602;55.670;37.578;2023-05-01T12:03:04;98813.72;;;7.36;84.38
35489;BME280;21602;55.670;37.578;2023-05-01T12:05:31;98825.47;;;7.28;84.13
35489;BME280;21602;55.670;37.578;2023-05-01T12:08:20;98847.75;;;7.27;84.46
35489;BME280;21602;55.670;37.578;2023-05-01T12:10:54;98813.69;;;7.06;85.26
35489;BME280;21602;55.670;37.578;2023-05-01T12:13:22;98836.06;;;6.98;85.65
35489;BME280;21602;55.670;37.578;2023-05-01T12:15:51;98836.41;;;7.02;85.21
35489;BME280;21602;55.670;37.578;2023-05-01T12:18:17;98835.59;;;7.01;86.67
35489;BME280;21602;55.670;37.578;2023-05-01T12:20:44;98831.75;;;6.97;87.41
35489;BME280;21602;55.670;37.578;2023-05-01T12:23:13;98837.88;;;6.98;87.46
35489;BME280;21602;55.670;37.578;2023-05-01T12:25:42;98842.53;;;7.02;87.41
35489;BME280;21602;55.670;37.578;2023-05-01T12:28:12;98843.56;;;7.01;86.82
35489;BME280;21602;55.670;37.578;2023-05-01T12:30:39;98858.00;;;7.05;86.72
35489;BME280;21602;55.670;37.578;2023-05-01T12:33:11;98858.53;;;6.96;86.84
35489;BME280;21602;55.670;37.578;2023-05-01T12:35:38;98852.56;;;7.00;86.91
35489;BME280;21602;55.670;37.578;2023-05-01T12:38:25;98857.13;;;6.93;85.93
35489;BME280;21602;55.670;37.578;2023-05-01T12:41:02;98864.59;;;6.84;86.90
35489;BME280;21602;55.670;37.578;2023-05-01T12:43:33;98867.09;;;6.79;86.49
35489;BME280;21602;55.670;37.578;2023-05-01T12:46:02;98871.28;;;6.87;86.82
35489;BME280;21602;55.670;37.578;2023-05-01T12:48:29;98883.66;;;6.93;86.66
35489;BME280;21602;55.670;37.578;2023-05-01T12:50:55;98878.53;;;6.98;86.96
35489;BME280;21602;55.670;37.578;2023-05-01T12:53:26;98884.31;;;7.07;86.87
35489;BME280;21602;55.670;37.578;2023-05-01T12:55:53;98886.97;;;7.07;86.53
35489;BME280;21602;55.670;37.578;2023-05-01T12:58:19;98885.31;;;7.12;86.86
35489;BME280;21602;55.670;37.578;2023-05-01T13:00:54;98884.41;;;7.18;86.92
35489;BME280;21602;55.670;37.578;2023-05-01T13:03:25;98899.81;;;7.28;86.83
35489;BME280;21602;55.670;37.578;2023-05-01T13:05:56;98905.69;;;7.30;86.52
35489;BME280;21602;55.670;37.578;2023-05-01T13:08:29;98897.25;;;7.22;86.42
35489;BME280;21602;55.670;37.578;2023-05-01T13:10:58;98922.75;;;7.23;86.88
35489;BME280;21602;55.670;37.578;2023-05-01T13:13:30;98915.22;;;7.19;86.17
35489;BME280;21602;55.670;37.578;2023-05-01T13:16:06;98911.75;;;7.19;86.18
35489;BME280;21602;55.670;37.578;2023-05-01T13:18:45;98912.19;;;7.16;85.84
35489;BME280;21602;55.670;37.578;2023-05-01T13:21:14;98914.50;;;7.12;85.83
35489;BME280;21602;55.670;37.578;2023-05-01T13:23:42;98927.97;;;7.11;84.78
35489;BME280;21602;55.670;37.578;2023-05-01T13:26:16;98916.50;;;7.17;85.11
35489;BME280;21602;55.670;37.578;2023-05-01T13:28:43;98927.41;;;7.27;85.33
35489;BME280;21602;55.670;37.578;2023-05-01T13:31:13;98933.41;;;7.34;84.56